EDFH/HHN METAR and TAF weather

Enter ICAO airport designator
Station Type Date Time Source
EDFH METAR 2018/12/10 17:50 UTC NOAA

EDFH 101750Z 32009KT 280V350 9999 -DZ BKN011 02/01 Q1021


Station Type Date Time Source
EDFH Decoded METAR 2018/12/10 17:50 UTC NOAA

Hahn, Germany (EDFH) 49-57N 007-16E 498M
Dec 10, 2018 - 12:50 PM EST / 2018.12.10 1750 UTC
Wind: from the NW (320 degrees) at 10 MPH (9 KT) (direction variable):0
Visibility: greater than 7 mile(s):0
Sky conditions: mostly cloudy
Weather: light drizzle
Temperature: 35 F (2 C)
Windchill: 26 F (-3 C):1
Dew Point: 33 F (1 C)
Relative Humidity: 93%
Pressure (altimeter): 30.15 in. Hg (1021 hPa)
ob: EDFH 101750Z 32009KT 280V350 9999 -DZ BKN011 02/01 Q1021
cycle: 18

Station Type Date Time Source
EDFH TAF 2018/12/10 18:30 UTC NOAA

TAF EDFH 101700Z 1018/1118 29012KT 9999 SCT020 PROB30
TEMPO 1018/1020 28015G25KT 4000 SHRA BKN008 BKN015TCU
TEMPO 1020/1110 BKN012 PROB30
TEMPO 1022/1109 BKN008
BECMG 1113/1115 28007KT


Example: see airport list